Time;durP1;ratioP1;P1;durP2;ratioP2;P2;SDS_P1;SDS_P2;PMS_P1;PMS_P2;Temp;Humidity;BMP_temperature;BMP_pressure;BME280_temperature;BME280_humidity;BME280_pressure;Samples;Min_cycle;Max_cycle;Signal;HPM_P1;HPM_P2
2023/06/08 00:02:20;;;;;;;5.00;4.67;;;17.30;99.90;;;;;;4991797;28;20187;-70
2023/06/08 00:04:46;;;;;;;4.93;4.63;;;17.30;99.90;;;;;;4974588;28;20976;-69
2023/06/08 00:07:16;;;;;;;4.40;4.10;;;17.30;99.90;;;;;;4992661;28;20175;-69
2023/06/08 00:09:42;;;;;;;5.10;4.57;;;17.40;99.90;;;;;;4993427;28;20206;-69
2023/06/08 00:12:08;;;;;;;4.97;4.67;;;17.40;99.90;;;;;;4991609;28;20545;-70
2023/06/08 00:14:35;;;;;;;5.50;5.00;;;17.50;99.90;;;;;;4980840;28;20490;-70
2023/06/08 00:17:03;;;;;;;5.37;4.97;;;17.50;99.90;;;;;;4979518;28;20439;-69
2023/06/08 00:19:33;;;;;;;5.80;5.30;;;17.50;99.90;;;;;;4992922;28;20443;-69
2023/06/08 00:22:04;;;;;;;5.57;5.17;;;17.50;99.90;;;;;;4984942;28;20895;-69
2023/06/08 00:24:30;;;;;;;5.57;5.17;;;17.40;99.90;;;;;;4990869;28;20441;-70
2023/06/08 00:26:56;;;;;;;5.13;4.83;;;17.40;99.90;;;;;;4991922;28;20435;-69
2023/06/08 00:29:21;;;;;;;4.93;4.53;;;17.40;99.90;;;;;;4991849;28;20449;-69
2023/06/08 00:31:48;;;;;;;5.20;4.80;;;17.40;99.90;;;;;;4992477;28;20578;-71
2023/06/08 00:34:14;;;;;;;5.90;5.50;;;17.40;99.90;;;;;;4987857;28;20540;-70
2023/06/08 00:36:40;;;;;;;5.10;4.80;;;17.30;99.90;;;;;;4985621;28;20434;-69
2023/06/08 00:39:05;;;;;;;4.93;4.63;;;17.20;99.90;;;;;;4992829;28;20180;-69
2023/06/08 00:41:31;;;;;;;5.80;5.30;;;17.10;99.90;;;;;;4993307;28;20196;-69
2023/06/08 00:43:56;;;;;;;5.70;5.30;;;17.10;99.90;;;;;;4991652;28;20521;-70
2023/06/08 00:46:24;;;;;;;5.40;5.00;;;16.90;99.90;;;;;;4992202;28;20190;-69
2023/06/08 00:48:52;;;;;;;5.47;4.93;;;16.80;99.90;;;;;;4991378;28;20172;-69
2023/06/08 00:51:19;;;;;;;6.40;5.87;;;16.80;99.90;;;;;;4988447;28;20458;-69
2023/06/08 00:53:46;;;;;;;5.57;5.07;;;16.70;99.90;;;;;;4979043;28;20443;-70
2023/06/08 00:56:18;;;;;;;5.87;5.37;;;;;;;;;;4990681;28;20439;-69
2023/06/08 00:59:05;;;;;;;5.33;4.83;;;;;;;;;;4991442;28;20430;-71
2023/06/08 01:01:32;;;;;;;5.83;5.37;;;;;;;;;;4991158;28;20917;-69
2023/06/08 01:04:08;;;;;;;5.47;5.00;;;;;;;;;;4990539;28;20435;-69
2023/06/08 01:06:35;;;;;;;5.37;4.97;;;;;;;;;;4989708;28;20441;-70
2023/06/08 01:09:31;;;;;;;4.80;4.40;;;;;;;;;;4992269;28;20477;-70
2023/06/08 01:12:13;;;;;;;5.20;4.70;;;16.50;99.90;;;;;;4969578;28;20537;-70
2023/06/08 01:14:47;;;;;;;5.70;5.13;;;16.70;99.90;;;;;;4984581;28;20450;-69
2023/06/08 01:17:17;;;;;;;5.40;5.00;;;16.80;99.90;;;;;;4990081;28;20496;-70
2023/06/08 01:20:12;;;;;;;5.93;5.40;;;16.60;99.90;;;;;;4977261;28;20907;-70
2023/06/08 01:22:56;;;;;;;5.40;4.60;;;16.50;99.90;;;;;;4971463;28;20553;-70
2023/06/08 01:25:26;;;;;;;5.27;4.83;;;16.40;99.90;;;;;;4990002;28;20446;-70
2023/06/08 01:28:12;;;;;;;4.90;4.50;;;16.30;99.90;;;;;;4984588;28;20445;-70
2023/06/08 01:30:38;;;;;;;5.67;5.17;;;16.20;99.90;;;;;;4983724;28;20548;-69
2023/06/08 01:33:04;;;;;;;5.10;4.80;;;16.30;99.90;;;;;;4991983;28;20492;-69
2023/06/08 01:35:30;;;;;;;5.60;5.20;;;16.40;99.90;;;;;;4996437;28;20437;-69
2023/06/08 01:38:02;;;;;;;5.00;4.60;;;16.50;99.90;;;;;;4982863;28;20274;-69
2023/06/08 01:40:34;;;;;;;6.60;6.10;;;16.60;99.90;;;;;;4989548;28;20212;-70
2023/06/08 01:43:01;;;;;;;5.90;5.50;;;16.60;99.90;;;;;;4991645;28;20482;-70
2023/06/08 01:45:32;;;;;;;5.90;5.50;;;16.70;99.90;;;;;;4990628;28;20477;-70
2023/06/08 01:48:02;;;;;;;5.60;5.13;;;16.60;99.90;;;;;;4990706;28;20966;-70
2023/06/08 01:50:29;;;;;;;5.90;5.40;;;16.20;99.90;;;;;;4988447;28;21079;-69
2023/06/08 01:52:56;;;;;;;6.20;5.70;;;16.00;99.90;;;;;;4978170;28;20603;-70
2023/06/08 01:55:22;;;;;;;5.67;5.27;;;15.80;99.90;;;;;;4989308;28;20443;-69
2023/06/08 01:57:48;;;;;;;5.53;5.13;;;15.80;99.90;;;;;;4990687;28;20445;-70
2023/06/08 02:00:16;;;;;;;6.90;6.17;;;15.80;99.90;;;;;;4989959;28;20833;-70
2023/06/08 02:02:42;;;;;;;6.57;5.50;;;15.80;99.90;;;;;;4989752;28;20266;-70
2023/06/08 02:05:10;;;;;;;7.20;6.53;;;15.70;99.90;;;;;;4987075;28;20533;-70
2023/06/08 02:07:37;;;;;;;6.00;5.60;;;15.70;99.90;;;;;;4990938;28;20211;-70
2023/06/08 02:10:07;;;;;;;6.00;5.50;;;15.60;99.90;;;;;;4991604;28;21023;-70
2023/06/08 02:12:33;;;;;;;8.10;5.83;;;15.60;99.90;;;;;;4992457;28;20478;-70
2023/06/08 02:14:59;;;;;;;6.30;5.80;;;15.60;99.90;;;;;;4997083;28;20450;-70
2023/06/08 02:17:27;;;;;;;5.27;4.90;;;15.60;99.90;;;;;;4991819;28;20238;-69
2023/06/08 02:19:54;;;;;;;5.50;5.00;;;15.60;99.90;;;;;;4992945;28;20449;-70
2023/06/08 02:22:20;;;;;;;5.43;5.03;;;15.60;99.90;;;;;;4976207;28;20470;-70
2023/06/08 02:24:46;;;;;;;5.67;5.27;;;15.60;99.90;;;;;;4995094;28;20450;-70
2023/06/08 02:27:13;;;;;;;5.37;4.87;;;15.60;99.90;;;;;;5002367;28;20458;-70
2023/06/08 02:29:39;;;;;;;5.87;5.37;;;15.60;99.90;;;;;;4994521;28;20445;-70
2023/06/08 02:32:06;;;;;;;6.17;5.43;;;15.50;99.90;;;;;;4994193;28;20215;-70
2023/06/08 02:34:31;;;;;;;5.43;5.03;;;15.40;99.90;;;;;;4995072;28;20453;-70
2023/06/08 02:36:57;;;;;;;5.57;5.17;;;15.40;99.90;;;;;;4995107;28;20434;-70
2023/06/08 02:39:23;;;;;;;6.00;5.50;;;15.40;99.90;;;;;;4987697;28;20258;-70
2023/06/08 02:41:48;;;;;;;5.80;5.40;;;15.40;99.90;;;;;;4994966;28;20537;-70
2023/06/08 02:44:14;;;;;;;5.10;4.60;;;15.40;99.90;;;;;;4985724;28;20188;-70
2023/06/08 02:46:39;;;;;;;5.07;4.77;;;15.40;99.90;;;;;;4991028;28;20272;-70
2023/06/08 02:49:05;;;;;;;5.83;5.33;;;15.30;99.90;;;;;;4993558;28;20300;-70
2023/06/08 02:51:31;;;;;;;5.67;5.17;;;;;;;;;;4976339;28;20227;-70
2023/06/08 02:53:58;;;;;;;5.23;4.73;;;;;;;;;;4995410;28;20553;-70
2023/06/08 02:56:25;;;;;;;5.57;5.17;;;;;;;;;;4994273;28;21057;-69
2023/06/08 02:58:51;;;;;;;5.47;5.00;;;;;;;;;;4993951;28;20437;-69
2023/06/08 03:01:18;;;;;;;6.10;5.50;;;;;;;;;;4990611;28;20461;-70
2023/06/08 03:03:45;;;;;;;6.17;5.57;;;;;;;;;;4989009;28;20431;-70
2023/06/08 03:06:12;;;;;;;5.50;5.10;;;;;;;;;;4990558;28;20970;-70
2023/06/08 03:08:42;;;;;;;5.10;4.80;;;;;;;;;;4991065;28;20439;-71
2023/06/08 03:11:08;;;;;;;6.03;4.73;;;;;;;;;;4994233;28;20492;-70
2023/06/08 03:13:35;;;;;;;6.50;5.90;;;;;;;;;;4994931;28;20508;-70
2023/06/08 03:16:01;;;;;;;6.00;5.60;;;;;;;;;;4994371;28;20481;-69
2023/06/08 03:18:27;;;;;;;4.80;4.50;;;;;;;;;;4995256;28;20903;-70
2023/06/08 03:20:54;;;;;;;5.77;5.37;;;;;;;;;;4995981;28;20469;-69
2023/06/08 03:23:20;;;;;;;4.90;4.60;;;14.90;99.90;;;;;;4976760;28;20430;-70
2023/06/08 03:25:48;;;;;;;6.50;5.90;;;14.90;99.90;;;;;;4994530;28;20442;-69
2023/06/08 03:28:15;;;;;;;7.03;6.33;;;;;;;;;;4994395;28;20258;-70
2023/06/08 03:30:41;;;;;;;5.50;5.13;;;;;;;;;;4994402;28;20454;-70
2023/06/08 03:33:07;;;;;;;5.87;5.47;;;14.90;99.90;;;;;;4993422;28;20948;-70
2023/06/08 03:35:32;;;;;;;5.40;5.00;;;14.70;99.90;;;;;;4984139;28;20541;-70
2023/06/08 03:37:58;;;;;;;5.00;4.70;;;14.80;99.90;;;;;;4992565;28;21055;-70
2023/06/08 03:40:24;;;;;;;5.73;5.23;;;;;;;;;;4993607;28;20199;-70
2023/06/08 03:42:50;;;;;;;5.97;5.43;;;14.70;99.90;;;;;;4993881;28;20184;-70
2023/06/08 03:45:17;;;;;;;5.80;5.40;;;14.60;99.90;;;;;;4992879;28;20948;-70
2023/06/08 03:47:42;;;;;;;5.23;4.83;;;14.70;99.90;;;;;;4993250;28;20446;-69
2023/06/08 03:50:08;;;;;;;6.03;5.50;;;14.80;99.90;;;;;;4991114;28;20528;-70
2023/06/08 03:52:34;;;;;;;5.60;5.20;;;14.90;99.90;;;;;;4982093;28;20876;-70
2023/06/08 03:55:00;;;;;;;5.17;4.67;;;14.90;99.90;;;;;;4994201;28;20230;-69
2023/06/08 03:57:25;;;;;;;6.17;5.73;;;15.00;99.90;;;;;;4995288;28;20574;-70
2023/06/08 03:59:51;;;;;;;5.60;5.20;;;14.90;99.90;;;;;;4992962;28;20188;-70
2023/06/08 04:02:16;;;;;;;6.60;6.10;;;14.90;99.90;;;;;;4993047;28;20199;-70
2023/06/08 04:04:44;;;;;;;5.87;5.47;;;14.90;99.90;;;;;;4992746;28;20214;-69
2023/06/08 04:07:11;;;;;;;6.90;5.37;;;14.90;99.90;;;;;;4984261;28;20184;-69
2023/06/08 04:09:37;;;;;;;6.10;5.70;;;15.20;99.90;;;;;;4987322;28;20525;-69
2023/06/08 04:12:02;;;;;;;5.40;5.00;;;15.20;99.90;;;;;;4993175;28;20572;-71
2023/06/08 04:14:28;;;;;;;7.00;6.40;;;15.20;99.90;;;;;;4996079;28;20238;-70
2023/06/08 04:16:53;;;;;;;6.87;6.33;;;15.10;99.90;;;;;;4991242;28;20655;-70
2023/06/08 04:19:19;;;;;;;7.10;6.60;;;15.10;99.90;;;;;;4990493;28;20194;-70
2023/06/08 04:21:44;;;;;;;6.90;6.20;;;15.30;99.90;;;;;;4988698;28;20696;-70
2023/06/08 04:24:10;;;;;;;6.13;5.63;;;15.30;99.90;;;;;;4992794;28;20259;-70
2023/06/08 04:26:36;;;;;;;9.20;6.50;;;15.50;99.90;;;;;;4989463;28;20238;-70
2023/06/08 04:29:03;;;;;;;6.13;5.60;;;15.50;99.90;;;;;;4975560;28;20435;-70
2023/06/08 04:31:30;;;;;;;5.20;4.87;;;15.70;99.90;;;;;;4990344;28;20206;-70
2023/06/08 04:33:56;;;;;;;6.50;6.00;;;15.90;99.90;;;;;;4990219;28;20554;-71
2023/06/08 04:36:22;;;;;;;5.83;5.40;;;15.90;99.90;;;;;;4994713;28;20521;-70
2023/06/08 04:38:47;;;;;;;5.20;4.70;;;15.90;99.90;;;;;;4992732;28;20180;-70
2023/06/08 04:41:14;;;;;;;5.33;4.93;;;16.20;99.90;;;;;;4992946;28;20885;-70
2023/06/08 04:43:40;;;;;;;5.40;5.00;;;16.30;99.90;;;;;;4993201;28;20274;-70
2023/06/08 04:46:07;;;;;;;6.23;5.83;;;16.40;99.90;;;;;;4991259;28;20543;-71
2023/06/08 04:48:33;;;;;;;5.90;5.50;;;16.50;99.90;;;;;;4990063;28;20187;-70
2023/06/08 04:51:01;;;;;;;7.13;6.50;;;16.50;99.90;;;;;;4990747;28;20465;-70
2023/06/08 04:53:27;;;;;;;6.73;6.20;;;16.60;99.90;;;;;;4983704;28;20471;-70
2023/06/08 04:56:02;;;;;;;6.40;5.80;;;16.60;99.90;;;;;;4990917;28;20453;-70
2023/06/08 04:58:29;;;;;;;7.40;6.80;;;16.90;99.90;;;;;;4992197;28;20541;-70
2023/06/08 05:00:55;;;;;;;6.70;6.20;;;17.30;99.90;;;;;;4991672;28;20461;-70
2023/06/08 05:03:22;;;;;;;5.90;5.50;;;17.60;99.90;;;;;;4993115;28;20514;-70
2023/06/08 05:05:48;;;;;;;5.57;5.17;;;17.90;99.90;;;;;;4974994;28;20822;-70
2023/06/08 05:08:13;;;;;;;6.40;5.87;;;18.00;99.90;;;;;;4989943;28;20443;-70
2023/06/08 05:10:39;;;;;;;5.90;5.43;;;18.10;99.90;;;;;;4990201;28;21546;-70
2023/06/08 05:13:05;;;;;;;5.93;5.43;;;18.40;99.90;;;;;;4992074;28;20211;-70
2023/06/08 05:15:31;;;;;;;5.63;5.23;;;18.60;99.90;;;;;;4991324;28;20645;-70
2023/06/08 05:17:57;;;;;;;5.83;5.23;;;18.60;99.90;;;;;;4992636;28;20190;-70
2023/06/08 05:20:23;;;;;;;6.90;5.40;;;18.80;99.90;;;;;;5005907;23;20455;-72
2023/06/08 05:22:49;;;;;;;6.17;5.77;;;18.90;99.90;;;;;;4993652;28;20443;-72
2023/06/08 05:25:15;;;;;;;6.40;5.90;;;19.00;99.90;;;;;;4987754;28;20433;-72
2023/06/08 05:27:40;;;;;;;5.80;5.40;;;19.10;99.90;;;;;;4991972;28;20179;-73
2023/06/08 05:30:07;;;;;;;6.77;6.27;;;19.10;99.90;;;;;;4991942;28;20183;-71
2023/06/08 05:32:33;;;;;;;6.67;6.07;;;19.00;99.90;;;;;;4987815;28;20603;-72
2023/06/08 05:34:58;;;;;;;5.80;5.50;;;19.00;99.90;;;;;;4990691;28;20497;-72
2023/06/08 05:37:25;;;;;;;6.07;5.67;;;19.10;99.90;;;;;;4992043;28;20191;-72
2023/06/08 05:39:50;;;;;;;5.73;5.33;;;19.30;99.90;;;;;;4991424;28;20182;-71
2023/06/08 05:42:16;;;;;;;5.67;5.27;;;19.30;99.90;;;;;;4991761;28;20467;-73
2023/06/08 05:44:41;;;;;;;5.77;5.37;;;19.60;99.90;;;;;;4990101;28;20572;-71
2023/06/08 05:47:07;;;;;;;6.63;6.13;;;19.90;99.90;;;;;;4991263;28;20187;-71
2023/06/08 05:49:32;;;;;;;4.70;4.40;;;20.20;99.90;;;;;;4973727;28;20187;-74
2023/06/08 05:51:58;;;;;;;5.30;4.83;;;20.40;99.90;;;;;;4987864;28;20312;-71
2023/06/08 05:54:23;;;;;;;6.17;5.60;;;20.70;99.90;;;;;;4991743;28;20189;-71
2023/06/08 05:56:50;;;;;;;6.30;5.80;;;20.90;99.90;;;;;;4991727;28;20204;-73
2023/06/08 05:59:16;;;;;;;6.73;6.13;;;21.10;99.90;;;;;;4990495;28;20175;-72
2023/06/08 06:01:41;;;;;;;6.00;5.50;;;21.20;99.90;;;;;;4989997;28;20469;-73
2023/06/08 06:04:07;;;;;;;6.40;5.90;;;21.50;99.90;;;;;;4988422;28;20187;-71
2023/06/08 06:06:32;;;;;;;4.87;4.57;;;21.50;99.90;;;;;;4989864;28;20258;-72
2023/06/08 06:08:58;;;;;;;5.77;5.37;;;21.60;99.90;;;;;;4988899;28;20187;-71
2023/06/08 06:11:25;;;;;;;5.93;5.53;;;21.70;99.90;;;;;;4974288;28;20212;-71
2023/06/08 06:13:51;;;;;;;5.70;5.20;;;21.90;99.90;;;;;;4989308;28;20499;-72
2023/06/08 06:16:16;;;;;;;6.13;5.53;;;22.10;99.90;;;;;;4992348;28;20813;-71
2023/06/08 06:18:46;;;;;;;5.20;4.80;;;22.00;99.90;;;;;;4988533;28;20230;-71
2023/06/08 06:21:13;;;;;;;5.53;5.03;;;22.10;99.90;;;;;;4989796;28;20618;-74
2023/06/08 06:23:38;;;;;;;5.77;5.37;;;22.30;99.90;;;;;;4991095;28;20470;-71
2023/06/08 06:26:05;;;;;;;4.97;4.40;;;21.80;99.90;;;;;;4991705;28;20442;-71
2023/06/08 06:28:31;;;;;;;5.80;5.40;;;22.10;99.90;;;;;;4990089;28;20434;-71
2023/06/08 06:30:57;;;;;;;6.40;5.90;;;22.20;99.90;;;;;;4991385;28;20474;-71
2023/06/08 06:33:22;;;;;;;4.70;4.40;;;22.40;99.90;;;;;;4987728;28;20471;-74
2023/06/08 06:35:48;;;;;;;6.03;5.60;;;22.40;99.90;;;;;;4990264;28;20184;-71
2023/06/08 06:38:13;;;;;;;5.37;4.90;;;22.50;99.90;;;;;;4970539;28;20176;-71
2023/06/08 06:40:39;;;;;;;5.20;4.90;;;22.60;99.90;;;;;;4975206;28;20274;-71
2023/06/08 06:43:05;;;;;;;5.90;5.40;;;22.70;99.90;;;;;;4990848;28;20176;-71
2023/06/08 06:45:30;;;;;;;4.30;4.00;;;22.60;99.90;;;;;;4991499;28;20549;-71
2023/06/08 06:47:56;;;;;;;5.50;5.00;;;22.60;99.90;;;;;;4990206;28;20180;-71
2023/06/08 06:50:21;;;;;;;4.73;4.43;;;22.80;99.90;;;;;;4988063;28;20290;-71
2023/06/08 06:52:47;;;;;;;4.70;4.40;;;23.10;99.90;;;;;;4990769;28;20215;-71
2023/06/08 06:55:12;;;;;;;5.10;4.70;;;23.50;99.90;;;;;;4989674;28;20183;-72
2023/06/08 06:57:40;;;;;;;5.93;5.43;;;23.80;99.90;;;;;;4990351;28;20188;-71
2023/06/08 07:00:10;;;;;;;5.20;4.80;;;23.90;99.90;;;;;;4989676;28;20254;-74
2023/06/08 07:02:38;;;;;;;5.53;4.67;;;24.20;99.90;;;;;;4990262;28;20443;-74
2023/06/08 07:05:07;;;;;;;6.77;5.70;;;24.40;99.90;;;;;;4991203;28;20564;-72
2023/06/08 07:07:34;;;;;;;6.80;6.30;;;24.40;99.90;;;;;;4989298;28;20833;-71
2023/06/08 07:09:59;;;;;;;5.83;5.33;;;24.50;99.90;;;;;;4991622;28;20445;-71
2023/06/08 07:12:25;;;;;;;6.10;5.70;;;24.60;99.90;;;;;;4993444;28;20466;-73
2023/06/08 07:14:50;;;;;;;5.90;5.37;;;24.70;99.90;;;;;;4993067;28;20592;-71
2023/06/08 07:17:16;;;;;;;6.30;5.90;;;24.80;99.90;;;;;;4976669;28;20180;-75
2023/06/08 07:19:42;;;;;;;6.60;6.00;;;25.00;99.90;;;;;;4992192;28;20179;-71
2023/06/08 07:22:08;;;;;;;5.50;5.10;;;25.30;99.90;;;;;;4994689;28;20258;-71
2023/06/08 07:24:35;;;;;;;5.83;5.47;;;25.50;99.90;;;;;;4993891;28;20442;-72
2023/06/08 07:27:01;;;;;;;6.67;5.80;;;25.40;99.90;;;;;;4995252;28;20207;-73
2023/06/08 07:29:26;;;;;;;6.70;6.20;;;25.80;99.90;;;;;;4990523;28;20959;-72
2023/06/08 07:31:52;;;;;;;5.60;5.10;;;25.90;99.90;;;;;;4993508;28;20282;-71
2023/06/08 07:34:17;;;;;;;6.17;5.77;;;26.10;99.90;;;;;;4975907;28;20191;-72
2023/06/08 07:36:43;;;;;;;13.63;5.67;;;26.30;99.90;;;;;;4994538;28;20263;-71
2023/06/08 07:39:08;;;;;;;6.30;5.70;;;26.30;99.90;;;;;;4993587;28;20207;-72
2023/06/08 07:41:34;;;;;;;6.43;6.03;;;26.30;99.90;;;;;;4993279;28;20192;-70
2023/06/08 07:44:01;;;;;;;6.40;5.90;;;26.30;99.90;;;;;;4990881;28;20187;-71
2023/06/08 07:46:26;;;;;;;6.30;5.90;;;26.30;99.90;;;;;;4994107;28;20191;-70
2023/06/08 07:48:52;;;;;;;6.77;6.10;;;26.40;99.90;;;;;;4994103;28;20434;-71
2023/06/08 07:51:18;;;;;;;7.27;6.60;;;26.50;99.90;;;;;;4993339;28;20218;-70
2023/06/08 07:53:44;;;;;;;6.40;5.90;;;26.60;99.60;;;;;;4993877;28;20242;-71
2023/06/08 07:56:10;;;;;;;6.50;6.00;;;26.80;99.20;;;;;;4991678;28;20462;-70
2023/06/08 07:58:35;;;;;;;6.40;5.90;;;26.90;98.80;;;;;;4991288;28;20593;-70
2023/06/08 08:01:02;;;;;;;6.43;6.00;;;26.90;98.40;;;;;;4991618;28;20715;-70
2023/06/08 08:03:28;;;;;;;6.60;6.10;;;26.90;98.40;;;;;;4982560;28;20569;-70
2023/06/08 08:05:55;;;;;;;7.13;6.23;;;27.00;98.10;;;;;;4993152;28;20450;-70
2023/06/08 08:08:21;;;;;;;6.43;5.93;;;27.20;98.10;;;;;;4993087;28;20812;-71
2023/06/08 08:10:47;;;;;;;8.00;7.20;;;27.40;97.70;;;;;;4989768;28;20459;-70
2023/06/08 08:13:13;;;;;;;7.17;6.40;;;27.50;96.80;;;;;;4992091;28;20213;-70
2023/06/08 08:15:41;;;;;;;7.00;6.43;;;27.50;96.60;;;;;;4972511;28;20861;-70
2023/06/08 08:18:06;;;;;;;6.20;5.60;;;27.60;96.10;;;;;;4992995;28;20182;-70
2023/06/08 08:20:32;;;;;;;5.80;5.40;;;27.30;96.40;;;;;;4992681;28;20470;-71
2023/06/08 08:22:58;;;;;;;6.50;5.90;;;27.30;96.10;;;;;;4993028;28;20237;-70
2023/06/08 08:25:23;;;;;;;6.70;6.10;;;27.30;96.20;;;;;;4992921;28;20183;-71
2023/06/08 08:27:49;;;;;;;5.97;5.57;;;27.30;95.80;;;;;;4992030;28;20191;-70
2023/06/08 08:30:14;;;;;;;6.23;5.83;;;27.30;96.20;;;;;;4992117;28;20245;-71
2023/06/08 08:32:40;;;;;;;6.20;5.80;;;27.10;96.00;;;;;;4992708;28;20203;-72
2023/06/08 08:35:06;;;;;;;5.80;5.40;;;27.40;95.50;;;;;;4986164;28;20189;-71
2023/06/08 08:37:31;;;;;;;5.40;5.03;;;27.60;96.00;;;;;;4992510;28;20187;-70
2023/06/08 08:39:58;;;;;;;7.17;6.47;;;27.80;95.20;;;;;;4991697;28;20180;-70
2023/06/08 08:42:26;;;;;;;6.30;5.90;;;27.60;94.90;;;;;;4992958;28;20216;-71
2023/06/08 08:44:56;;;;;;;7.30;6.90;;;27.80;96.10;;;;;;4992007;28;20506;-71
2023/06/08 08:47:28;;;;;;;6.13;5.73;;;27.70;96.20;;;;;;4992392;28;20951;-71
2023/06/08 08:50:03;;;;;;;8.07;6.57;;;27.30;96.20;;;;;;4982629;28;20522;-71
2023/06/08 08:52:30;;;;;;;7.00;6.50;;;27.10;96.30;;;;;;4989721;28;20508;-71
2023/06/08 08:54:57;;;;;;;7.20;6.70;;;27.20;96.60;;;;;;4990050;28;20944;-70
2023/06/08 08:57:27;;;;;;;7.13;6.53;;;27.30;95.90;;;;;;4992113;28;20948;-70
2023/06/08 08:59:54;;;;;;;6.63;6.07;;;27.50;95.50;;;;;;4977945;28;20487;-70
2023/06/08 09:02:20;;;;;;;6.33;5.93;;;27.40;95.20;;;;;;4984649;28;20466;-69
2023/06/08 09:04:45;;;;;;;7.60;6.83;;;27.60;94.10;;;;;;4991999;28;20445;-70
2023/06/08 09:07:11;;;;;;;6.60;6.20;;;27.90;94.10;;;;;;4988121;28;20301;-70
2023/06/08 09:09:36;;;;;;;6.67;6.17;;;27.70;93.80;;;;;;4989561;28;20219;-70
2023/06/08 09:12:04;;;;;;;6.57;6.17;;;27.60;93.70;;;;;;4992332;28;20207;-70
2023/06/08 09:14:30;;;;;;;6.63;6.00;;;26.60;94.70;;;;;;4993337;28;20202;-69
2023/06/08 09:16:58;;;;;;;9.20;8.40;;;26.70;94.40;;;;;;4993372;28;20931;-69
2023/06/08 09:19:25;;;;;;;6.50;6.03;;;27.20;94.70;;;;;;4992643;28;20211;-69
2023/06/08 09:21:50;;;;;;;6.10;5.70;;;27.30;93.90;;;;;;4993032;28;20504;-70
2023/06/08 09:24:22;;;;;;;7.10;6.60;;;27.60;93.30;;;;;;4984272;28;20520;-69
2023/06/08 09:27:03;;;;;;;5.67;5.30;;;27.80;92.00;;;;;;4989074;28;20172;-70
2023/06/08 09:29:44;;;;;;;6.73;6.27;;;28.30;91.70;;;;;;4991431;28;20418;-70
2023/06/08 09:32:14;;;;;;;5.97;5.57;;;28.90;88.50;;;;;;4985448;28;20501;-69
2023/06/08 09:34:53;;;;;;;5.80;5.40;;;29.30;88.20;;;;;;4987498;28;20457;-71
2023/06/08 09:37:29;;;;;;;6.73;6.13;;;29.80;88.40;;;;;;4992498;28;20456;-70
2023/06/08 09:39:55;;;;;;;6.47;6.07;;;30.00;85.50;;;;;;4986467;28;21144;-70
2023/06/08 09:42:22;;;;;;;5.90;5.50;;;30.30;84.20;;;;;;4992353;28;20956;-70
2023/06/08 09:44:47;;;;;;;5.70;5.20;;;30.80;82.70;;;;;;4991048;28;20447;-71
2023/06/08 09:47:25;;;;;;;7.50;6.30;;;31.60;91.70;;;;;;4987598;28;21086;-70
2023/06/08 09:49:52;;;;;;;6.27;5.80;;;32.10;83.80;;;;;;4986127;28;20172;-70
2023/06/08 09:52:23;;;;;;;6.20;5.70;;;32.00;78.30;;;;;;4991568;28;20486;-70
2023/06/08 09:54:49;;;;;;;6.20;5.80;;;32.80;77.10;;;;;;4989370;28;20430;-71
2023/06/08 09:57:16;;;;;;;6.00;5.50;;;33.40;72.30;;;;;;4992571;28;20419;-68
2023/06/08 10:00:14;;;;;;;6.40;5.67;;;33.80;68.00;;;;;;4990842;28;20446;-68
2023/06/08 10:02:45;;;;;;;5.93;5.47;;;34.40;63.00;;;;;;4983198;28;20446;-67
2023/06/08 10:05:15;;;;;;;6.33;5.73;;;34.90;60.90;;;;;;4992196;28;20997;-69
2023/06/08 10:07:45;;;;;;;6.40;5.90;;;34.20;59.10;;;;;;4979031;28;20450;-68
2023/06/08 10:10:22;;;;;;;5.60;5.20;;;33.60;59.30;;;;;;4991742;28;20446;-67
2023/06/08 10:12:48;;;;;;;6.57;6.07;;;33.20;61.80;;;;;;4991172;28;20883;-72
2023/06/08 10:15:14;;;;;;;5.60;5.10;;;34.40;59.90;;;;;;4992155;28;20430;-68
2023/06/08 10:17:40;;;;;;;6.40;5.90;;;35.30;57.90;;;;;;4991621;28;20493;-68
2023/06/08 10:20:06;;;;;;;5.07;4.67;;;35.90;56.00;;;;;;4989634;28;20431;-67
2023/06/08 10:22:32;;;;;;;5.27;4.77;;;36.30;55.00;;;;;;4991747;28;20529;-67
2023/06/08 10:24:59;;;;;;;6.93;6.27;;;37.00;53.00;;;;;;4990993;28;20202;-68
2023/06/08 10:27:24;;;;;;;5.50;5.13;;;36.80;50.60;;;;;;4990320;28;20771;-69
2023/06/08 10:29:58;;;;;;;6.70;6.20;;;37.00;51.10;;;;;;4990520;28;20473;-70
2023/06/08 10:32:36;;;;;;;5.80;5.20;;;35.80;50.30;;;;;;4986105;28;20211;-70
2023/06/08 10:35:04;;;;;;;5.30;5.00;;;36.00;49.40;;;;;;4991540;28;20465;-70
2023/06/08 10:37:32;;;;;;;6.20;5.60;;;37.40;47.70;;;;;;4992101;28;20989;-69
2023/06/08 10:39:58;;;;;;;6.40;5.80;;;38.40;45.00;;;;;;4988878;28;21162;-70
2023/06/08 10:42:24;;;;;;;5.70;5.30;;;38.50;43.90;;;;;;4990269;28;21077;-70
2023/06/08 10:44:57;;;;;;;6.30;5.83;;;39.40;38.40;;;;;;4992879;28;20447;-68
2023/06/08 10:47:24;;;;;;;5.67;5.27;;;39.60;40.00;;;;;;4994410;28;20195;-70
2023/06/08 10:50:01;;;;;;;5.70;5.40;;;36.60;41.30;;;;;;4990390;28;20450;-70
2023/06/08 10:52:26;;;;;;;5.87;5.57;;;36.00;42.20;;;;;;4976367;28;20550;-69
2023/06/08 10:54:52;;;;;;;5.80;5.47;;;37.70;42.10;;;;;;4976260;28;20940;-69
2023/06/08 10:57:37;;;;;;;5.73;5.33;;;39.10;40.70;;;;;;4976315;28;20588;-70
2023/06/08 11:00:23;;;;;;;6.30;5.10;;;40.50;38.00;;;;;;4975870;28;20641;-70
2023/06/08 11:02:49;;;;;;;5.57;5.20;;;41.40;36.70;;;;;;4988948;28;20512;-70
2023/06/08 11:05:16;;;;;;;6.30;5.90;;;41.80;36.20;;;;;;4995504;28;20427;-69
2023/06/08 11:07:42;;;;;;;5.83;5.30;;;41.30;36.50;;;;;;4995168;28;20915;-70
2023/06/08 11:10:08;;;;;;;6.00;5.60;;;41.70;36.30;;;;;;4995123;28;20450;-70
2023/06/08 11:12:33;;;;;;;5.87;5.47;;;41.10;35.30;;;;;;4995328;28;20900;-70
2023/06/08 11:15:00;;;;;;;6.10;5.60;;;40.30;36.40;;;;;;4995531;28;20431;-70
2023/06/08 11:17:26;;;;;;;5.80;5.43;;;41.20;35.00;;;;;;4994601;28;20187;-70
2023/06/08 11:19:51;;;;;;;6.30;5.90;;;39.30;35.50;;;;;;4995171;28;20423;-70
2023/06/08 11:22:17;;;;;;;6.37;5.97;;;40.60;35.60;;;;;;5018402;23;20532;-69
2023/06/08 11:24:43;;;;;;;5.77;5.47;;;41.90;33.30;;;;;;4994788;28;20180;-68
2023/06/08 11:27:15;;;;;;;6.47;6.07;;;42.90;32.90;;;;;;4995632;28;20175;-68
2023/06/08 11:29:41;;;;;;;6.80;6.40;;;43.30;31.90;;;;;;4997091;28;20458;-68
2023/06/08 11:32:11;;;;;;;6.10;5.80;;;44.20;30.10;;;;;;4999298;28;20466;-68
2023/06/08 11:34:45;;;;;;;6.00;5.70;;;44.80;30.00;;;;;;4995277;28;20180;-69
2023/06/08 11:37:16;;;;;;;7.60;7.10;;;44.30;29.10;;;;;;4992717;28;20965;-69
2023/06/08 11:39:46;;;;;;;6.57;6.07;;;44.50;29.80;;;;;;4989587;28;20434;-69
2023/06/08 11:42:11;;;;;;;7.70;7.20;;;44.30;29.50;;;;;;4993732;28;20535;-69
2023/06/08 11:44:37;;;;;;;6.40;5.83;;;43.60;29.00;;;;;;4994112;28;20439;-69
2023/06/08 11:47:04;;;;;;;5.97;5.47;;;43.40;29.80;;;;;;4991766;28;20175;-68
2023/06/08 11:49:51;;;;;;;6.60;6.30;;;44.80;28.40;;;;;;4993966;28;20322;-68
2023/06/08 11:52:17;;;;;;;7.20;6.60;;;43.50;28.10;;;;;;4992927;28;20835;-68
2023/06/08 11:54:43;;;;;;;6.27;5.70;;;41.60;28.60;;;;;;4994141;28;20430;-68
2023/06/08 11:57:09;;;;;;;6.90;6.50;;;39.90;29.10;;;;;;4994097;28;20186;-68
2023/06/08 11:59:41;;;;;;;7.00;6.50;;;37.80;29.80;;;;;;4994281;28;20652;-68
2023/06/08 12:02:10;;;;;;;6.47;6.10;;;35.70;31.10;;;;;;4992834;28;20569;-68
2023/06/08 12:04:36;;;;;;;6.87;6.47;;;34.30;33.00;;;;;;4994384;28;20419;-68
2023/06/08 12:07:10;;;;;;;8.63;8.13;;;32.30;34.40;;;;;;4994399;28;20414;-68
2023/06/08 12:09:36;;;;;;;8.13;7.20;;;30.50;36.90;;;;;;4994180;28;20190;-68
2023/06/08 12:12:11;;;;;;;8.30;7.73;;;29.50;39.00;;;;;;4994303;28;20569;-70
2023/06/08 12:14:43;;;;;;;8.33;7.63;;;28.70;40.20;;;;;;4994327;28;20436;-70
2023/06/08 12:17:14;;;;;;;7.50;7.00;;;28.90;40.80;;;;;;4993398;28;20494;-70
2023/06/08 12:19:42;;;;;;;8.57;7.57;;;28.50;41.70;;;;;;4982456;28;20422;-70
2023/06/08 12:22:08;;;;;;;8.00;7.50;;;28.90;41.20;;;;;;4987424;28;20466;-70
2023/06/08 12:24:33;;;;;;;7.90;7.40;;;29.40;40.80;;;;;;4983270;28;20477;-70
2023/06/08 12:26:59;;;;;;;7.03;6.47;;;29.50;40.20;;;;;;4980397;28;20164;-69
2023/06/08 12:29:24;;;;;;;6.60;6.03;;;28.40;44.40;;;;;;4993611;28;20168;-69
2023/06/08 12:31:50;;;;;;;11.37;6.60;;;27.50;46.70;;;;;;4964028;28;20238;-69
2023/06/08 12:34:15;;;;;;;6.77;6.27;;;26.80;48.40;;;;;;4990746;28;20183;-69
2023/06/08 12:36:41;;;;;;;6.77;6.37;;;26.20;50.10;;;;;;4993967;28;20172;-69
2023/06/08 12:39:06;;;;;;;6.43;5.83;;;26.70;50.50;;;;;;4993204;28;20176;-70
2023/06/08 12:41:32;;;;;;;6.50;5.90;;;27.50;48.60;;;;;;4993918;28;20266;-69
2023/06/08 12:43:57;;;;;;;6.07;5.57;;;28.50;47.60;;;;;;4993573;28;20223;-69
2023/06/08 12:46:23;;;;;;;5.40;5.00;;;29.40;46.00;;;;;;4993211;28;20176;-70
2023/06/08 12:48:48;;;;;;;6.80;6.10;;;30.40;44.50;;;;;;4993258;28;20203;-70
2023/06/08 12:51:15;;;;;;;6.57;6.10;;;29.90;44.80;;;;;;4993632;28;20223;-69
2023/06/08 12:53:41;;;;;;;6.37;5.97;;;29.00;45.90;;;;;;4993645;28;20183;-69
2023/06/08 12:56:07;;;;;;;5.67;5.27;;;28.20;46.30;;;;;;4991904;28;20435;-69